sensor_id;sensor_type;location;lat;lon;timestamp;temperature;humidity
76305;DHT22;65111;50.536;19.204;2023-03-01T00:02:06;-3272.00;82.10
76305;DHT22;65111;50.536;19.204;2023-03-01T00:04:32;-3272.00;82.10
76305;DHT22;65111;50.536;19.204;2023-03-01T00:06:58;-3271.90;82.10
76305;DHT22;65111;50.536;19.204;2023-03-01T00:09:24;-3271.90;82.20
76305;DHT22;65111;50.536;19.204;2023-03-01T00:11:50;-3271.80;82.40
76305;DHT22;65111;50.536;19.204;2023-03-01T00:14:16;-3271.90;82.60
76305;DHT22;65111;50.536;19.204;2023-03-01T00:16:44;-3271.90;82.50
76305;DHT22;65111;50.536;19.204;2023-03-01T00:19:15;-3271.80;82.70
76305;DHT22;65111;50.536;19.204;2023-03-01T00:21:42;-3271.90;83.20
76305;DHT22;65111;50.536;19.204;2023-03-01T00:24:09;-3272.00;83.10
76305;DHT22;65111;50.536;19.204;2023-03-01T00:26:36;-3272.00;83.00
76305;DHT22;65111;50.536;19.204;2023-03-01T00:29:03;-3272.10;83.00
76305;DHT22;65111;50.536;19.204;2023-03-01T00:31:31;-3272.00;83.20
76305;DHT22;65111;50.536;19.204;2023-03-01T00:34:00;-3272.10;83.40
76305;DHT22;65111;50.536;19.204;2023-03-01T00:36:28;-3272.10;83.30
76305;DHT22;65111;50.536;19.204;2023-03-01T00:38:55;-3272.10;83.20
76305;DHT22;65111;50.536;19.204;2023-03-01T00:41:22;-3272.00;83.00
76305;DHT22;65111;50.536;19.204;2023-03-01T00:43:49;-3272.00;83.00
76305;DHT22;65111;50.536;19.204;2023-03-01T00:46:20;-3272.00;83.00
76305;DHT22;65111;50.536;19.204;2023-03-01T00:48:47;-3272.00;83.30
76305;DHT22;65111;50.536;19.204;2023-03-01T00:51:20;-3271.90;83.40
76305;DHT22;65111;50.536;19.204;2023-03-01T00:53:46;-3272.00;83.40
76305;DHT22;65111;50.536;19.204;2023-03-01T00:56:14;-3272.00;83.20
76305;DHT22;65111;50.536;19.204;2023-03-01T00:58:40;-3271.80;83.00
76305;DHT22;65111;50.536;19.204;2023-03-01T01:01:08;-3271.80;83.00
76305;DHT22;65111;50.536;19.204;2023-03-01T01:03:51;-3271.90;83.00
76305;DHT22;65111;50.536;19.204;2023-03-01T01:06:23;-3271.80;82.90
76305;DHT22;65111;50.536;19.204;2023-03-01T01:08:51;-3271.80;82.90
76305;DHT22;65111;50.536;19.204;2023-03-01T01:11:17;-3271.70;82.80
76305;DHT22;65111;50.536;19.204;2023-03-01T01:13:45;-3271.80;82.80
76305;DHT22;65111;50.536;19.204;2023-03-01T01:16:12;-3271.80;82.90
76305;DHT22;65111;50.536;19.204;2023-03-01T01:18:38;-3271.60;82.80
76305;DHT22;65111;50.536;19.204;2023-03-01T01:21:09;-3271.70;83.00
76305;DHT22;65111;50.536;19.204;2023-03-01T01:23:37;-3271.60;83.00
76305;DHT22;65111;50.536;19.204;2023-03-01T01:26:15;-3271.60;82.90
76305;DHT22;65111;50.536;19.204;2023-03-01T01:28:41;-3271.70;82.90
76305;DHT22;65111;50.536;19.204;2023-03-01T01:31:07;-3271.60;83.00
76305;DHT22;65111;50.536;19.204;2023-03-01T01:33:33;-3271.50;83.00
76305;DHT22;65111;50.536;19.204;2023-03-01T01:35:59;-3271.60;83.00
76305;DHT22;65111;50.536;19.204;2023-03-01T01:38:25;-3271.50;82.90
76305;DHT22;65111;50.536;19.204;2023-03-01T01:40:52;-3271.60;83.20
76305;DHT22;65111;50.536;19.204;2023-03-01T01:43:23;-3271.50;83.10
76305;DHT22;65111;50.536;19.204;2023-03-01T01:45:50;-3271.50;82.90
76305;DHT22;65111;50.536;19.204;2023-03-01T01:48:18;-3271.50;83.00
76305;DHT22;65111;50.536;19.204;2023-03-01T01:50:52;-3271.50;83.00
76305;DHT22;65111;50.536;19.204;2023-03-01T01:53:19;-3271.50;83.10
76305;DHT22;65111;50.536;19.204;2023-03-01T01:55:53;-3271.50;83.00
76305;DHT22;65111;50.536;19.204;2023-03-01T01:58:24;-3271.40;83.00
76305;DHT22;65111;50.536;19.204;2023-03-01T02:00:53;-3271.40;83.50
76305;DHT22;65111;50.536;19.204;2023-03-01T02:03:26;-3271.40;83.80
76305;DHT22;65111;50.536;19.204;2023-03-01T02:06:26;-3271.50;84.00
76305;DHT22;65111;50.536;19.204;2023-03-01T02:09:00;-3271.70;84.10
76305;DHT22;65111;50.536;19.204;2023-03-01T02:11:29;-3271.70;84.00
76305;DHT22;65111;50.536;19.204;2023-03-01T02:13:56;-3271.70;83.90
76305;DHT22;65111;50.536;19.204;2023-03-01T02:16:22;-3271.70;83.90
76305;DHT22;65111;50.536;19.204;2023-03-01T02:18:49;-3271.80;83.60
76305;DHT22;65111;50.536;19.204;2023-03-01T02:24:32;-3271.60;84.00
76305;DHT22;65111;50.536;19.204;2023-03-01T02:27:02;-3271.70;84.00
76305;DHT22;65111;50.536;19.204;2023-03-01T02:29:28;-3271.70;83.70
76305;DHT22;65111;50.536;19.204;2023-03-01T02:31:56;-3271.70;83.50
76305;DHT22;65111;50.536;19.204;2023-03-01T02:34:24;-3271.70;83.40
76305;DHT22;65111;50.536;19.204;2023-03-01T02:36:59;-3271.60;83.30
76305;DHT22;65111;50.536;19.204;2023-03-01T02:39:47;-3271.50;83.30
76305;DHT22;65111;50.536;19.204;2023-03-01T02:42:22;-3271.50;83.80
76305;DHT22;65111;50.536;19.204;2023-03-01T02:44:49;-3271.60;83.80
76305;DHT22;65111;50.536;19.204;2023-03-01T02:47:16;-3271.50;83.50
76305;DHT22;65111;50.536;19.204;2023-03-01T02:49:41;-3271.50;83.40
76305;DHT22;65111;50.536;19.204;2023-03-01T02:52:34;-3271.40;83.50
76305;DHT22;65111;50.536;19.204;2023-03-01T02:55:12;-3271.40;83.40
76305;DHT22;65111;50.536;19.204;2023-03-01T02:57:41;-3271.40;83.40
76305;DHT22;65111;50.536;19.204;2023-03-01T03:00:19;-3271.40;83.40
76305;DHT22;65111;50.536;19.204;2023-03-01T03:02:47;-3271.30;83.30
76305;DHT22;65111;50.536;19.204;2023-03-01T03:05:24;-3271.30;83.70
76305;DHT22;65111;50.536;19.204;2023-03-01T03:07:50;-3271.30;84.30
76305;DHT22;65111;50.536;19.204;2023-03-01T03:10:20;-3271.30;84.70
76305;DHT22;65111;50.536;19.204;2023-03-01T03:13:02;-3271.40;85.00
76305;DHT22;65111;50.536;19.204;2023-03-01T03:15:29;-3271.50;84.60
76305;DHT22;65111;50.536;19.204;2023-03-01T03:17:56;-3271.60;84.50
76305;DHT22;65111;50.536;19.204;2023-03-01T03:20:25;-3271.60;84.40
76305;DHT22;65111;50.536;19.204;2023-03-01T03:22:53;-3271.60;84.10
76305;DHT22;65111;50.536;19.204;2023-03-01T03:25:20;-3271.60;84.00
76305;DHT22;65111;50.536;19.204;2023-03-01T03:27:48;-3271.50;84.00
76305;DHT22;65111;50.536;19.204;2023-03-01T03:30:17;-3271.60;84.30
76305;DHT22;65111;50.536;19.204;2023-03-01T03:32:45;-3271.70;84.30
76305;DHT22;65111;50.536;19.204;2023-03-01T03:35:34;-3271.70;84.40
76305;DHT22;65111;50.536;19.204;2023-03-01T03:38:05;-3271.70;84.10
76305;DHT22;65111;50.536;19.204;2023-03-01T03:40:33;-3271.70;83.80
76305;DHT22;65111;50.536;19.204;2023-03-01T03:43:00;-3271.70;83.70
76305;DHT22;65111;50.536;19.204;2023-03-01T03:45:27;-3271.60;83.60
76305;DHT22;65111;50.536;19.204;2023-03-01T03:47:53;-3271.50;83.50
76305;DHT22;65111;50.536;19.204;2023-03-01T03:50:19;-3271.50;83.50
76305;DHT22;65111;50.536;19.204;2023-03-01T03:52:45;-3271.50;83.50
76305;DHT22;65111;50.536;19.204;2023-03-01T03:55:12;-3271.40;83.80
76305;DHT22;65111;50.536;19.204;2023-03-01T03:57:41;-3271.40;83.80
76305;DHT22;65111;50.536;19.204;2023-03-01T04:00:11;-3271.30;83.70
76305;DHT22;65111;50.536;19.204;2023-03-01T04:02:44;-3271.40;83.70
76305;DHT22;65111;50.536;19.204;2023-03-01T04:05:13;-3271.30;83.70
76305;DHT22;65111;50.536;19.204;2023-03-01T04:07:41;-3271.20;83.70
76305;DHT22;65111;50.536;19.204;2023-03-01T04:10:11;-3271.20;83.90
76305;DHT22;65111;50.536;19.204;2023-03-01T04:12:37;-3271.10;84.10
76305;DHT22;65111;50.536;19.204;2023-03-01T04:15:05;-3271.20;84.10
76305;DHT22;65111;50.536;19.204;2023-03-01T04:17:42;-3271.30;84.20
76305;DHT22;65111;50.536;19.204;2023-03-01T04:20:16;-3271.20;84.10
76305;DHT22;65111;50.536;19.204;2023-03-01T04:23:04;-3271.30;84.50
76305;DHT22;65111;50.536;19.204;2023-03-01T04:25:40;-3271.30;84.50
76305;DHT22;65111;50.536;19.204;2023-03-01T04:28:07;-3271.30;84.70
76305;DHT22;65111;50.536;19.204;2023-03-01T04:30:35;-3271.30;84.60
76305;DHT22;65111;50.536;19.204;2023-03-01T04:33:06;-3271.30;84.40
76305;DHT22;65111;50.536;19.204;2023-03-01T04:35:34;-3271.40;84.10
76305;DHT22;65111;50.536;19.204;2023-03-01T04:38:00;-3271.30;83.90
76305;DHT22;65111;50.536;19.204;2023-03-01T04:40:26;-3271.30;84.10
76305;DHT22;65111;50.536;19.204;2023-03-01T04:42:52;-3271.40;84.20
76305;DHT22;65111;50.536;19.204;2023-03-01T04:45:18;-3271.40;84.40
76305;DHT22;65111;50.536;19.204;2023-03-01T04:47:45;-3271.30;84.30
76305;DHT22;65111;50.536;19.204;2023-03-01T04:50:14;-3271.40;84.20
76305;DHT22;65111;50.536;19.204;2023-03-01T04:52:41;-3271.40;84.10
76305;DHT22;65111;50.536;19.204;2023-03-01T04:55:08;-3271.40;83.90
76305;DHT22;65111;50.536;19.204;2023-03-01T04:57:34;-3271.40;83.80
76305;DHT22;65111;50.536;19.204;2023-03-01T05:00:00;-3271.30;83.90
76305;DHT22;65111;50.536;19.204;2023-03-01T05:02:26;-3271.30;84.00
76305;DHT22;65111;50.536;19.204;2023-03-01T05:04:51;-3271.30;84.00
76305;DHT22;65111;50.536;19.204;2023-03-01T05:07:17;-3271.30;84.10
76305;DHT22;65111;50.536;19.204;2023-03-01T05:09:48;-3271.30;84.10
76305;DHT22;65111;50.536;19.204;2023-03-01T05:12:14;-3271.30;83.90
76305;DHT22;65111;50.536;19.204;2023-03-01T05:14:41;-3271.30;83.70
76305;DHT22;65111;50.536;19.204;2023-03-01T05:17:07;-3271.20;83.60
76305;DHT22;65111;50.536;19.204;2023-03-01T05:19:33;-3271.20;83.50
76305;DHT22;65111;50.536;19.204;2023-03-01T05:21:59;-3271.10;83.50
76305;DHT22;65111;50.536;19.204;2023-03-01T05:24:33;-3271.00;83.60
76305;DHT22;65111;50.536;19.204;2023-03-01T05:27:01;-3271.00;83.80
76305;DHT22;65111;50.536;19.204;2023-03-01T05:29:29;-3270.90;84.00
76305;DHT22;65111;50.536;19.204;2023-03-01T05:31:57;-3271.00;84.20
76305;DHT22;65111;50.536;19.204;2023-03-01T05:34:25;-3271.00;84.30
76305;DHT22;65111;50.536;19.204;2023-03-01T05:36:52;-3271.00;84.40
76305;DHT22;65111;50.536;19.204;2023-03-01T05:39:26;-3271.10;84.60
76305;DHT22;65111;50.536;19.204;2023-03-01T05:41:54;-3271.30;84.60
76305;DHT22;65111;50.536;19.204;2023-03-01T05:44:20;-3271.30;84.70
76305;DHT22;65111;50.536;19.204;2023-03-01T05:46:47;-3271.50;84.70
76305;DHT22;65111;50.536;19.204;2023-03-01T05:49:13;-3271.70;84.80
76305;DHT22;65111;50.536;19.204;2023-03-01T05:51:40;-3271.70;84.90
76305;DHT22;65111;50.536;19.204;2023-03-01T05:54:07;-3272.00;85.10
76305;DHT22;65111;50.536;19.204;2023-03-01T05:56:34;-3272.30;85.20
76305;DHT22;65111;50.536;19.204;2023-03-01T05:59:01;-3272.60;85.40
76305;DHT22;65111;50.536;19.204;2023-03-01T06:01:28;-3273.10;85.60
76305;DHT22;65111;50.536;19.204;2023-03-01T06:03:55;-3273.60;85.30
76305;DHT22;65111;50.536;19.204;2023-03-01T06:06:23;-3274.00;84.60
76305;DHT22;65111;50.536;19.204;2023-03-01T06:08:50;-3274.40;84.30
76305;DHT22;65111;50.536;19.204;2023-03-01T06:11:16;-3274.70;84.00
76305;DHT22;65111;50.536;19.204;2023-03-01T06:13:43;-3275.20;84.10
76305;DHT22;65111;50.536;19.204;2023-03-01T06:16:09;-3275.90;84.80
76305;DHT22;65111;50.536;19.204;2023-03-01T06:18:36;-3276.70;85.00
76305;DHT22;65111;50.536;19.204;2023-03-01T06:21:03;0.60;84.20
76305;DHT22;65111;50.536;19.204;2023-03-01T06:23:29;1.40;83.00
76305;DHT22;65111;50.536;19.204;2023-03-01T06:25:55;2.20;81.00
76305;DHT22;65111;50.536;19.204;2023-03-01T06:28:21;3.30;77.80
76305;DHT22;65111;50.536;19.204;2023-03-01T06:30:49;4.10;75.30
76305;DHT22;65111;50.536;19.204;2023-03-01T06:33:15;5.20;72.60
76305;DHT22;65111;50.536;19.204;2023-03-01T06:35:41;6.10;68.60
76305;DHT22;65111;50.536;19.204;2023-03-01T06:38:07;7.10;66.00
76305;DHT22;65111;50.536;19.204;2023-03-01T06:40:33;8.00;64.40
76305;DHT22;65111;50.536;19.204;2023-03-01T06:43:01;9.00;62.20
76305;DHT22;65111;50.536;19.204;2023-03-01T06:45:27;10.00;60.10
76305;DHT22;65111;50.536;19.204;2023-03-01T06:48:01;11.00;57.60
76305;DHT22;65111;50.536;19.204;2023-03-01T06:50:27;12.00;55.20
76305;DHT22;65111;50.536;19.204;2023-03-01T06:52:57;12.80;52.60
76305;DHT22;65111;50.536;19.204;2023-03-01T06:55:23;13.40;51.40
76305;DHT22;65111;50.536;19.204;2023-03-01T06:57:54;13.90;50.50
76305;DHT22;65111;50.536;19.204;2023-03-01T07:00:21;14.60;49.00
76305;DHT22;65111;50.536;19.204;2023-03-01T07:02:47;15.30;47.80
76305;DHT22;65111;50.536;19.204;2023-03-01T07:05:13;16.10;45.70
76305;DHT22;65111;50.536;19.204;2023-03-01T07:07:39;16.80;44.70
76305;DHT22;65111;50.536;19.204;2023-03-01T07:10:06;17.40;43.30
76305;DHT22;65111;50.536;19.204;2023-03-01T07:12:32;18.20;41.70
76305;DHT22;65111;50.536;19.204;2023-03-01T07:14:58;19.00;40.80
76305;DHT22;65111;50.536;19.204;2023-03-01T07:17:24;19.70;39.80
76305;DHT22;65111;50.536;19.204;2023-03-01T07:19:50;20.30;38.80
76305;DHT22;65111;50.536;19.204;2023-03-01T07:22:16;20.90;37.70
76305;DHT22;65111;50.536;19.204;2023-03-01T07:24:43;21.50;37.00
76305;DHT22;65111;50.536;19.204;2023-03-01T07:27:09;22.00;36.40
76305;DHT22;65111;50.536;19.204;2023-03-01T07:29:36;22.60;36.00
76305;DHT22;65111;50.536;19.204;2023-03-01T07:32:03;23.20;35.50
76305;DHT22;65111;50.536;19.204;2023-03-01T07:34:29;23.70;34.10
76305;DHT22;65111;50.536;19.204;2023-03-01T07:36:55;23.80;32.90
76305;DHT22;65111;50.536;19.204;2023-03-01T07:39:21;23.60;32.50
76305;DHT22;65111;50.536;19.204;2023-03-01T07:41:49;23.40;32.40
76305;DHT22;65111;50.536;19.204;2023-03-01T07:44:15;23.00;32.30
76305;DHT22;65111;50.536;19.204;2023-03-01T07:46:43;23.10;32.50
76305;DHT22;65111;50.536;19.204;2023-03-01T07:49:10;23.50;32.40
76305;DHT22;65111;50.536;19.204;2023-03-01T07:51:36;24.00;31.90
76305;DHT22;65111;50.536;19.204;2023-03-01T07:54:02;24.60;31.30
76305;DHT22;65111;50.536;19.204;2023-03-01T07:56:28;24.90;31.10
76305;DHT22;65111;50.536;19.204;2023-03-01T07:58:54;25.20;30.70
76305;DHT22;65111;50.536;19.204;2023-03-01T08:01:21;25.50;30.40
76305;DHT22;65111;50.536;19.204;2023-03-01T08:03:47;25.80;30.00
76305;DHT22;65111;50.536;19.204;2023-03-01T08:06:15;26.10;29.90
76305;DHT22;65111;50.536;19.204;2023-03-01T08:08:41;26.50;29.80
76305;DHT22;65111;50.536;19.204;2023-03-01T08:11:10;26.90;29.90
76305;DHT22;65111;50.536;19.204;2023-03-01T08:13:37;27.40;29.70
76305;DHT22;65111;50.536;19.204;2023-03-01T08:16:08;28.20;29.40
76305;DHT22;65111;50.536;19.204;2023-03-01T08:18:35;28.80;29.00
76305;DHT22;65111;50.536;19.204;2023-03-01T08:21:05;29.20;28.50
76305;DHT22;65111;50.536;19.204;2023-03-01T08:23:32;29.70;28.20
76305;DHT22;65111;50.536;19.204;2023-03-01T08:26:09;30.20;27.30
76305;DHT22;65111;50.536;19.204;2023-03-01T08:28:38;30.50;27.10
76305;DHT22;65111;50.536;19.204;2023-03-01T08:31:26;30.60;26.90
76305;DHT22;65111;50.536;19.204;2023-03-01T08:33:55;30.60;26.50
76305;DHT22;65111;50.536;19.204;2023-03-01T08:36:29;30.70;26.30
76305;DHT22;65111;50.536;19.204;2023-03-01T08:38:56;30.40;26.20
76305;DHT22;65111;50.536;19.204;2023-03-01T08:41:23;30.00;26.40
76305;DHT22;65111;50.536;19.204;2023-03-01T08:43:49;29.70;26.60
76305;DHT22;65111;50.536;19.204;2023-03-01T08:46:16;29.50;26.60
76305;DHT22;65111;50.536;19.204;2023-03-01T08:48:42;29.20;26.70
76305;DHT22;65111;50.536;19.204;2023-03-01T08:51:17;29.30;26.80
76305;DHT22;65111;50.536;19.204;2023-03-01T08:53:43;29.50;26.80
76305;DHT22;65111;50.536;19.204;2023-03-01T08:56:10;29.90;26.50
76305;DHT22;65111;50.536;19.204;2023-03-01T08:58:37;30.10;26.50
76305;DHT22;65111;50.536;19.204;2023-03-01T09:01:08;30.40;26.60
76305;DHT22;65111;50.536;19.204;2023-03-01T09:03:34;31.00;26.30
76305;DHT22;65111;50.536;19.204;2023-03-01T09:06:01;31.50;26.00
76305;DHT22;65111;50.536;19.204;2023-03-01T09:08:27;32.00;25.90
76305;DHT22;65111;50.536;19.204;2023-03-01T09:10:54;32.60;25.70
76305;DHT22;65111;50.536;19.204;2023-03-01T09:13:19;33.10;25.60
76305;DHT22;65111;50.536;19.204;2023-03-01T09:15:45;33.50;25.60
76305;DHT22;65111;50.536;19.204;2023-03-01T09:18:11;34.00;25.40
76305;DHT22;65111;50.536;19.204;2023-03-01T09:20:37;34.50;25.30
76305;DHT22;65111;50.536;19.204;2023-03-01T09:23:03;35.00;25.20
76305;DHT22;65111;50.536;19.204;2023-03-01T09:25:29;35.40;25.00
76305;DHT22;65111;50.536;19.204;2023-03-01T09:27:55;35.90;24.50
76305;DHT22;65111;50.536;19.204;2023-03-01T09:30:21;36.40;24.50
76305;DHT22;65111;50.536;19.204;2023-03-01T09:32:47;36.80;24.20
76305;DHT22;65111;50.536;19.204;2023-03-01T09:35:13;37.20;24.10
76305;DHT22;65111;50.536;19.204;2023-03-01T09:37:39;37.60;23.90
76305;DHT22;65111;50.536;19.204;2023-03-01T09:40:14;37.90;23.80
76305;DHT22;65111;50.536;19.204;2023-03-01T09:43:12;38.20;23.70
76305;DHT22;65111;50.536;19.204;2023-03-01T09:45:43;38.50;23.50
76305;DHT22;65111;50.536;19.204;2023-03-01T09:48:20;39.00;23.40
76305;DHT22;65111;50.536;19.204;2023-03-01T09:50:49;39.60;23.40
76305;DHT22;65111;50.536;19.204;2023-03-01T09:53:19;39.70;23.30
76305;DHT22;65111;50.536;19.204;2023-03-01T09:55:48;39.80;23.10
76305;DHT22;65111;50.536;19.204;2023-03-01T10:02:01;40.20;22.90
76305;DHT22;65111;50.536;19.204;2023-03-01T10:09:40;40.50;22.50
76305;DHT22;65111;50.536;19.204;2023-03-01T10:12:16;40.80;22.20
76305;DHT22;65111;50.536;19.204;2023-03-01T10:18:01;40.40;22.40
76305;DHT22;65111;50.536;19.204;2023-03-01T10:20:56;40.60;22.10
76305;DHT22;65111;50.536;19.204;2023-03-01T10:23:25;40.30;22.10
76305;DHT22;65111;50.536;19.204;2023-03-01T10:26:12;40.10;22.00
76305;DHT22;65111;50.536;19.204;2023-03-01T10:29:03;39.80;21.90
76305;DHT22;65111;50.536;19.204;2023-03-01T10:34:29;40.10;21.80
76305;DHT22;65111;50.536;19.204;2023-03-01T10:36:58;40.20;21.50
76305;DHT22;65111;50.536;19.204;2023-03-01T10:39:26;40.00;21.50
76305;DHT22;65111;50.536;19.204;2023-03-01T10:41:56;39.80;21.50
76305;DHT22;65111;50.536;19.204;2023-03-01T10:44:42;39.60;21.40
76305;DHT22;65111;50.536;19.204;2023-03-01T10:49:58;38.10;21.40
76305;DHT22;65111;50.536;19.204;2023-03-01T10:52:28;37.00;21.70
76305;DHT22;65111;50.536;19.204;2023-03-01T10:55:42;36.50;21.50
76305;DHT22;65111;50.536;19.204;2023-03-01T10:57:43;36.20;21.50
76305;DHT22;65111;50.536;19.204;2023-03-01T11:00:28;35.70;21.50
76305;DHT22;65111;50.536;19.204;2023-03-01T11:03:14;35.40;21.70
76305;DHT22;65111;50.536;19.204;2023-03-01T11:06:05;35.70;21.60
76305;DHT22;65111;50.536;19.204;2023-03-01T11:08:40;35.90;21.30
76305;DHT22;65111;50.536;19.204;2023-03-01T11:11:17;35.70;20.90
76305;DHT22;65111;50.536;19.204;2023-03-01T11:13:58;35.40;21.10
76305;DHT22;65111;50.536;19.204;2023-03-01T11:16:35;35.40;20.60
76305;DHT22;65111;50.536;19.204;2023-03-01T11:19:15;35.10;20.80
76305;DHT22;65111;50.536;19.204;2023-03-01T11:21:59;35.10;21.00
76305;DHT22;65111;50.536;19.204;2023-03-01T11:24:44;35.80;20.90
76305;DHT22;65111;50.536;19.204;2023-03-01T11:27:22;36.70;20.70
76305;DHT22;65111;50.536;19.204;2023-03-01T11:32:35;38.00;20.90
76305;DHT22;65111;50.536;19.204;2023-03-01T11:35:16;38.40;20.80
76305;DHT22;65111;50.536;19.204;2023-03-01T11:46:24;37.10;20.40
76305;DHT22;65111;50.536;19.204;2023-03-01T12:06:24;38.50;20.50
76305;DHT22;65111;50.536;19.204;2023-03-01T12:11:59;37.80;20.30
76305;DHT22;65111;50.536;19.204;2023-03-01T12:17:25;37.30;20.60
76305;DHT22;65111;50.536;19.204;2023-03-01T12:20:05;37.80;20.60
76305;DHT22;65111;50.536;19.204;2023-03-01T12:23:17;38.00;20.60
76305;DHT22;65111;50.536;19.204;2023-03-01T12:26:22;38.30;20.50
76305;DHT22;65111;50.536;19.204;2023-03-01T12:29:13;37.90;20.50
76305;DHT22;65111;50.536;19.204;2023-03-01T12:43:08;34.80;20.50
76305;DHT22;65111;50.536;19.204;2023-03-01T12:50:41;33.50;21.10
76305;DHT22;65111;50.536;19.204;2023-03-01T12:53:27;32.60;21.20
76305;DHT22;65111;50.536;19.204;2023-03-01T12:56:05;30.80;21.60
76305;DHT22;65111;50.536;19.204;2023-03-01T13:20:27;11.60;31.30
76305;DHT22;65111;50.536;19.204;2023-03-01T13:26:18;10.30;31.60
76305;DHT22;65111;50.536;19.204;2023-03-01T13:34:09;8.90;33.70
76305;DHT22;65111;50.536;19.204;2023-03-01T13:36:48;8.60;34.00
76305;DHT22;65111;50.536;19.204;2023-03-01T13:42:00;8.20;34.20
76305;DHT22;65111;50.536;19.204;2023-03-01T13:44:33;7.90;34.50
76305;DHT22;65111;50.536;19.204;2023-03-01T13:49:48;7.60;36.30
76305;DHT22;65111;50.536;19.204;2023-03-01T13:55:00;7.60;36.70
76305;DHT22;65111;50.536;19.204;2023-03-01T13:57:33;7.50;37.00
76305;DHT22;65111;50.536;19.204;2023-03-01T14:00:00;7.50;36.70
76305;DHT22;65111;50.536;19.204;2023-03-01T14:02:26;7.30;36.30
76305;DHT22;65111;50.536;19.204;2023-03-01T14:04:59;7.30;36.60
76305;DHT22;65111;50.536;19.204;2023-03-01T14:07:27;7.30;37.70
76305;DHT22;65111;50.536;19.204;2023-03-01T14:10:06;7.10;38.80
76305;DHT22;65111;50.536;19.204;2023-03-01T14:15:18;7.00;39.10
76305;DHT22;65111;50.536;19.204;2023-03-01T14:20:20;6.80;38.40
76305;DHT22;65111;50.536;19.204;2023-03-01T14:22:48;6.70;38.90
76305;DHT22;65111;50.536;19.204;2023-03-01T14:25:36;6.70;39.20
76305;DHT22;65111;50.536;19.204;2023-03-01T14:28:24;6.70;40.30
76305;DHT22;65111;50.536;19.204;2023-03-01T14:30:54;6.50;40.20
76305;DHT22;65111;50.536;19.204;2023-03-01T14:36:12;6.20;39.60
76305;DHT22;65111;50.536;19.204;2023-03-01T14:38:44;6.20;40.20
76305;DHT22;65111;50.536;19.204;2023-03-01T14:41:14;6.00;39.80
76305;DHT22;65111;50.536;19.204;2023-03-01T14:46:36;5.70;41.30
76305;DHT22;65111;50.536;19.204;2023-03-01T14:52:03;5.90;44.00
76305;DHT22;65111;50.536;19.204;2023-03-01T14:54:53;5.70;42.00
76305;DHT22;65111;50.536;19.204;2023-03-01T14:57:25;5.80;41.90
76305;DHT22;65111;50.536;19.204;2023-03-01T14:59:54;5.60;42.50
76305;DHT22;65111;50.536;19.204;2023-03-01T15:02:23;5.50;42.70
76305;DHT22;65111;50.536;19.204;2023-03-01T15:04:53;5.40;42.60
76305;DHT22;65111;50.536;19.204;2023-03-01T15:07:26;5.50;43.40
76305;DHT22;65111;50.536;19.204;2023-03-01T15:09:52;5.40;43.70
76305;DHT22;65111;50.536;19.204;2023-03-01T15:14:54;5.20;44.20
76305;DHT22;65111;50.536;19.204;2023-03-01T15:17:40;5.20;43.50
76305;DHT22;65111;50.536;19.204;2023-03-01T15:20:16;5.10;42.70
76305;DHT22;65111;50.536;19.204;2023-03-01T15:22:46;4.80;43.40
76305;DHT22;65111;50.536;19.204;2023-03-01T15:25:19;5.00;43.60
76305;DHT22;65111;50.536;19.204;2023-03-01T15:27:48;4.80;42.10
76305;DHT22;65111;50.536;19.204;2023-03-01T15:30:30;4.90;42.10
76305;DHT22;65111;50.536;19.204;2023-03-01T15:35:55;4.60;42.50
76305;DHT22;65111;50.536;19.204;2023-03-01T15:38:35;4.50;43.50
76305;DHT22;65111;50.536;19.204;2023-03-01T15:41:25;4.20;44.00
76305;DHT22;65111;50.536;19.204;2023-03-01T15:43:52;4.30;46.00
76305;DHT22;65111;50.536;19.204;2023-03-01T15:46:25;4.20;46.30
76305;DHT22;65111;50.536;19.204;2023-03-01T15:48:57;3.80;45.50
76305;DHT22;65111;50.536;19.204;2023-03-01T15:51:32;4.00;45.10
76305;DHT22;65111;50.536;19.204;2023-03-01T15:54:22;3.90;46.60
76305;DHT22;65111;50.536;19.204;2023-03-01T15:56:46;3.80;46.40
76305;DHT22;65111;50.536;19.204;2023-03-01T15:59:12;3.70;45.50
76305;DHT22;65111;50.536;19.204;2023-03-01T16:01:42;3.70;46.20
76305;DHT22;65111;50.536;19.204;2023-03-01T16:04:10;3.50;46.40
76305;DHT22;65111;50.536;19.204;2023-03-01T16:06:42;3.40;46.80
76305;DHT22;65111;50.536;19.204;2023-03-01T16:09:08;3.50;46.60
76305;DHT22;65111;50.536;19.204;2023-03-01T16:11:35;3.10;46.50
76305;DHT22;65111;50.536;19.204;2023-03-01T16:14:02;3.00;46.40
76305;DHT22;65111;50.536;19.204;2023-03-01T16:16:28;2.60;46.40
76305;DHT22;65111;50.536;19.204;2023-03-01T16:18:55;2.40;46.80
76305;DHT22;65111;50.536;19.204;2023-03-01T16:21:23;2.30;47.90
76305;DHT22;65111;50.536;19.204;2023-03-01T16:23:51;1.90;48.80
76305;DHT22;65111;50.536;19.204;2023-03-01T16:26:17;2.10;49.50
76305;DHT22;65111;50.536;19.204;2023-03-01T16:28:45;2.00;50.80
76305;DHT22;65111;50.536;19.204;2023-03-01T16:31:11;1.70;51.60
76305;DHT22;65111;50.536;19.204;2023-03-01T16:33:40;1.80;52.20
76305;DHT22;65111;50.536;19.204;2023-03-01T16:36:10;1.60;52.10
76305;DHT22;65111;50.536;19.204;2023-03-01T16:38:37;1.60;52.60
76305;DHT22;65111;50.536;19.204;2023-03-01T16:41:05;1.30;53.30
76305;DHT22;65111;50.536;19.204;2023-03-01T16:43:31;1.40;54.70
76305;DHT22;65111;50.536;19.204;2023-03-01T16:45:57;1.30;55.00
76305;DHT22;65111;50.536;19.204;2023-03-01T16:48:25;1.20;54.50
76305;DHT22;65111;50.536;19.204;2023-03-01T16:51:09;1.00;54.60
76305;DHT22;65111;50.536;19.204;2023-03-01T16:53:36;1.10;55.00
76305;DHT22;65111;50.536;19.204;2023-03-01T16:56:06;0.80;54.90
76305;DHT22;65111;50.536;19.204;2023-03-01T16:58:34;0.90;55.00
76305;DHT22;65111;50.536;19.204;2023-03-01T17:01:05;0.90;54.70
76305;DHT22;65111;50.536;19.204;2023-03-01T17:03:31;0.60;54.10
76305;DHT22;65111;50.536;19.204;2023-03-01T17:06:01;0.40;54.00
76305;DHT22;65111;50.536;19.204;2023-03-01T17:08:28;0.20;53.70
76305;DHT22;65111;50.536;19.204;2023-03-01T17:10:53;0.00;53.60
76305;DHT22;65111;50.536;19.204;2023-03-01T17:13:19;-3276.70;53.70
76305;DHT22;65111;50.536;19.204;2023-03-01T17:15:45;-3276.70;53.90
76305;DHT22;65111;50.536;19.204;2023-03-01T17:18:11;-3276.50;53.70
76305;DHT22;65111;50.536;19.204;2023-03-01T17:20:37;-3276.30;53.80
76305;DHT22;65111;50.536;19.204;2023-03-01T17:23:03;-3276.00;54.00
76305;DHT22;65111;50.536;19.204;2023-03-01T17:25:30;-3276.20;54.30
76305;DHT22;65111;50.536;19.204;2023-03-01T17:27:56;-3275.90;54.50
76305;DHT22;65111;50.536;19.204;2023-03-01T17:30:22;-3275.80;54.70